Time;durP1;ratioP1;P1;durP2;ratioP2;P2;SDS_P1;SDS_P2;PMS_P1;PMS_P2;Temp;Humidity;BMP_temperature;BMP_pressure;BME280_temperature;BME280_humidity;BME280_pressure;Samples;Min_cycle;Max_cycle;Signal;HPM_P1;HPM_P2
2022/12/20 00:00:47;;;;;;;;;3.75;3.25;;;;;;;;5043038;28;62810;-75
2022/12/20 00:03:13;;;;;;;;;3.25;3.00;;;;;;;;5042336;28;61702;-75
2022/12/20 00:05:39;;;;;;;;;3.00;3.00;;;;;;;;5043595;28;62020;-75
2022/12/20 00:08:05;;;;;;;;;8.25;5.00;;;;;;;;5043395;28;61805;-75
2022/12/20 00:10:30;;;;;;;;;3.00;2.75;;;;;;;;5042849;28;62055;-74
2022/12/20 00:12:55;;;;;;;;;4.00;3.75;;;;;;;;5041956;28;61701;-75
2022/12/20 00:15:20;;;;;;;;;4.25;3.00;;;;;;;;5043664;28;61718;-75
2022/12/20 00:17:46;;;;;;;;;6.75;3.25;;;;;;;;5043817;28;61847;-75
2022/12/20 00:20:11;;;;;;;;;2.00;2.00;;;;;;;;5042321;28;62768;-75
2022/12/20 00:22:36;;;;;;;;;5.00;2.25;;;;;;;;5043175;28;61790;-75
2022/12/20 00:25:02;;;;;;;;;2.50;2.50;;;;;;;;5043173;28;61662;-75
2022/12/20 00:27:27;;;;;;;;;3.00;2.00;;;;;;;;5042066;28;61777;-75
2022/12/20 00:29:52;;;;;;;;;2.00;2.00;;;;;;;;5042762;28;61717;-75
2022/12/20 00:32:18;;;;;;;;;3.25;3.25;;;;;;;;5041936;28;61936;-75
2022/12/20 00:34:43;;;;;;;;;3.00;3.00;;;;;;;;5043068;28;62261;-75
2022/12/20 00:37:08;;;;;;;;;4.25;4.00;;;;;;;;5043283;28;61865;-75
2022/12/20 00:39:34;;;;;;;;;2.00;2.00;;;;;;;;5042781;28;61942;-75
2022/12/20 00:41:59;;;;;;;;;3.25;2.75;;;;;;;;5042785;28;61826;-75
2022/12/20 00:44:24;;;;;;;;;3.50;3.00;;;;;;;;5043208;28;61753;-75
2022/12/20 00:46:49;;;;;;;;;4.50;4.25;;;;;;;;5043316;28;61780;-75
2022/12/20 00:49:15;;;;;;;;;2.00;2.00;;;;;;;;5041773;28;61675;-74
2022/12/20 00:51:40;;;;;;;;;4.00;4.00;;;;;;;;5041460;28;61844;-75
2022/12/20 00:54:05;;;;;;;;;4.50;4.00;;;;;;;;5042723;28;62076;-75
2022/12/20 00:56:31;;;;;;;;;5.75;3.75;;;;;;;;5042990;28;62045;-75
2022/12/20 00:58:57;;;;;;;;;3.00;3.00;;;;;;;;5042123;28;62794;-74
2022/12/20 01:01:24;;;;;;;;;6.75;4.00;;;;;;;;5042677;28;61710;-75
2022/12/20 01:03:50;;;;;;;;;4.25;3.00;;;;;;;;5042775;28;62071;-75
2022/12/20 01:06:15;;;;;;;;;5.00;2.00;;;;;;;;5041152;28;61749;-75
2022/12/20 01:08:41;;;;;;;;;4.25;3.00;;;;;;;;5042100;28;62675;-75
2022/12/20 01:11:12;;;;;;;;;4.50;2.00;;;;;;;;5042140;28;61738;-75
2022/12/20 01:13:38;;;;;;;;;5.00;3.00;;;;;;;;5042646;28;61960;-76
2022/12/20 01:16:05;;;;;;;;;3.75;3.00;;;;;;;;5042801;28;62004;-75
2022/12/20 01:18:30;;;;;;;;;2.25;2.25;;;;;;;;5040378;28;63687;-75
2022/12/20 01:20:59;;;;;;;;;3.00;3.00;;;;;;;;5041989;28;61848;-75
2022/12/20 01:23:25;;;;;;;;;3.00;2.00;;;;;;;;5041575;28;61664;-75
2022/12/20 01:25:50;;;;;;;;;4.75;2.00;;;;;;;;5042530;28;61808;-75
2022/12/20 01:28:15;;;;;;;;;2.00;2.00;;;;;;;;5041596;28;61917;-75
2022/12/20 01:30:41;;;;;;;;;5.50;2.50;;;;;;;;5042462;28;61899;-75
2022/12/20 01:33:06;;;;;;;;;4.50;2.25;;;;;;;;5042324;28;61910;-74
2022/12/20 01:35:31;;;;;;;;;1.00;1.00;;;;;;;;5042188;28;61762;-75
2022/12/20 01:37:56;;;;;;;;;3.00;2.00;;;;;;;;5041778;28;62534;-75
2022/12/20 01:40:22;;;;;;;;;4.00;4.00;;;;;;;;5041957;28;61773;-75
2022/12/20 01:42:47;;;;;;;;;3.00;2.50;;;;;;;;5040901;28;61787;-75
2022/12/20 01:45:19;;;;;;;;;2.50;1.50;;;;;;;;5042203;28;61894;-75
2022/12/20 01:47:45;;;;;;;;;4.25;3.75;;;;;;;;5039871;28;64176;-75
2022/12/20 01:50:10;;;;;;;;;3.00;3.00;;;;;;;;5041816;28;61832;-75
2022/12/20 01:52:39;;;;;;;;;3.75;2.00;;;;;;;;5042063;28;62405;-75
2022/12/20 01:55:08;;;;;;;;;2.00;2.00;;;;;;;;5042070;28;61765;-75
2022/12/20 01:57:35;;;;;;;;;3.50;1.75;;;;;;;;5041190;28;62832;-75
2022/12/20 02:00:01;;;;;;;;;1.00;1.00;;;;;;;;5041823;28;61972;-75
2022/12/20 02:02:27;;;;;;;;;2.00;2.00;;;;;;;;5040204;28;61797;-75
2022/12/20 02:04:52;;;;;;;;;2.25;2.25;;;;;;;;5042006;28;61738;-74
2022/12/20 02:07:20;;;;;;;;;2.00;1.00;;;;;;;;5041175;28;61924;-75
2022/12/20 02:09:46;;;;;;;;;2.00;2.00;;;;;;;;5041736;28;61823;-75
2022/12/20 02:12:19;;;;;;;;;4.25;1.00;;;;;;;;5041612;28;61929;-75
2022/12/20 02:14:47;;;;;;;;;1.25;1.25;;;;;;;;5040711;28;62007;-75
2022/12/20 02:17:32;;;;;;;;;3.00;2.50;;;;;;;;5041168;28;61813;-75
2022/12/20 02:19:57;;;;;;;;;2.00;2.00;;;;;;;;5041230;28;61749;-75
2022/12/20 02:22:28;;;;;;;;;3.00;2.00;;;;;;;;5041351;28;61970;-75
2022/12/20 02:25:10;;;;;;;;;3.00;2.00;;;;;;;;5041968;28;61699;-75
2022/12/20 02:27:53;;;;;;;;;3.00;1.75;;;;;;;;5041040;28;61928;-75
2022/12/20 02:30:23;;;;;;;;;4.00;3.00;;;;;;;;5041313;28;61769;-75
2022/12/20 02:32:51;;;;;;;;;2.75;2.75;;;;;;;;5041619;28;61828;-75
2022/12/20 02:35:20;;;;;;;;;1.00;1.00;;;;;;;;5042156;28;61781;-75
2022/12/20 02:37:49;;;;;;;;;2.00;2.00;;;;;;;;5044362;28;61922;-75
2022/12/20 02:40:17;;;;;;;;;3.50;3.00;;;;;;;;5044670;28;62061;-75
2022/12/20 02:42:42;;;;;;;;;2.50;2.00;;;;;;;;5044765;28;62062;-76
2022/12/20 02:45:14;;;;;;;;;1.50;1.25;;;;;;;;5043791;28;61783;-75
2022/12/20 02:47:52;;;;;;;;;2.00;2.00;;;;;;;;5044093;28;61733;-75
2022/12/20 02:50:21;;;;;;;;;2.25;2.25;;;;;;;;5044559;28;61624;-75
2022/12/20 02:52:47;;;;;;;;;2.00;1.00;;;;;;;;5044762;28;61956;-75
2022/12/20 02:55:12;;;;;;;;;1.00;1.00;;;;;;;;5043632;28;61691;-76
2022/12/20 02:57:43;;;;;;;;;3.50;2.00;;;;;;;;5043973;28;61869;-76
2022/12/20 03:00:10;;;;;;;;;1.75;1.75;;;;;;;;5044503;28;61938;-75
2022/12/20 03:05:22;;;;;;;;;4.00;2.00;;;;;;;;5044885;28;61809;-75
2022/12/20 03:07:48;;;;;;;;;5.50;2.00;;;;;;;;5042684;28;64137;-75
2022/12/20 03:10:13;;;;;;;;;3.50;3.00;;;;;;;;5042621;28;61987;-75
2022/12/20 03:12:38;;;;;;;;;1.50;1.50;;;;;;;;5044343;28;61987;-75
2022/12/20 03:15:04;;;;;;;;;2.00;2.00;;;;;;;;5044674;28;61801;-75
2022/12/20 03:17:29;;;;;;;;;2.00;1.00;;;;;;;;5043921;28;62549;-75
2022/12/20 03:19:54;;;;;;;;;4.00;2.00;;;;;;;;5044138;28;61804;-76
2022/12/20 03:22:20;;;;;;;;;2.00;2.00;;;;;;;;5042996;28;61814;-75
2022/12/20 03:24:45;;;;;;;;;1.75;1.75;;;;;;;;5042991;28;62038;-75
2022/12/20 03:27:11;;;;;;;;;2.75;1.25;;;;;;;;5043848;28;61775;-75
2022/12/20 03:29:37;;;;;;;;;3.00;3.00;;;;;;;;5043914;28;61820;-75
2022/12/20 03:32:02;;;;;;;;;1.75;1.75;;;;;;;;5042952;28;61983;-76
2022/12/20 03:34:27;;;;;;;;;2.50;1.75;;;;;;;;5042987;28;61821;-75
2022/12/20 03:36:52;;;;;;;;;1.00;1.00;;;;;;;;5043375;28;61958;-75
2022/12/20 03:39:18;;;;;;;;;3.75;2.00;;;;;;;;5044244;28;61775;-76
2022/12/20 03:41:43;;;;;;;;;1.25;1.25;;;;;;;;5043853;28;61976;-75
2022/12/20 03:44:08;;;;;;;;;3.25;2.00;;;;;;;;5042632;28;62139;-75
2022/12/20 03:46:34;;;;;;;;;3.50;1.25;;;;;;;;5043062;28;61782;-75
2022/12/20 03:48:59;;;;;;;;;2.25;2.00;;;;;;;;5042714;28;61762;-75
2022/12/20 03:51:25;;;;;;;;;3.00;2.00;;;;;;;;5042793;28;61889;-75
2022/12/20 03:53:50;;;;;;;;;3.25;0.75;;;;;;;;5042638;28;61827;-75
2022/12/20 03:56:15;;;;;;;;;2.75;1.75;;;;;;;;5043439;28;61984;-76
2022/12/20 03:58:41;;;;;;;;;1.00;1.00;;;;;;;;5042392;28;61938;-76
2022/12/20 04:01:20;;;;;;;;;2.75;1.00;;;;;;;;5042639;28;61683;-75
2022/12/20 04:03:46;;;;;;;;;1.00;1.00;;;;;;;;5044047;28;62000;-75
2022/12/20 04:06:11;;;;;;;;;3.00;2.00;;;;;;;;5042045;28;63617;-76
2022/12/20 04:08:36;;;;;;;;;3.00;1.00;;;;;;;;5040999;28;61933;-76
2022/12/20 04:11:17;;;;;;;;;2.00;2.00;;;;;;;;5022389;28;61755;-75
2022/12/20 04:13:43;;;;;;;;;4.00;3.00;;;;;;;;5024226;28;61625;-75
2022/12/20 04:16:08;;;;;;;;;1.50;1.00;;;;;;;;5023003;28;61828;-75
2022/12/20 04:18:34;;;;;;;;;1.00;1.00;;;;;;;;5022531;28;61832;-75
2022/12/20 04:20:59;;;;;;;;;2.50;1.50;;;;;;;;5021998;28;61762;-75
2022/12/20 04:23:25;;;;;;;;;2.25;2.00;;;;;;;;5023718;28;61980;-76
2022/12/20 04:25:50;;;;;;;;;3.75;1.25;;;;;;;;5022740;28;62569;-75
2022/12/20 04:28:15;;;;;;;;;2.25;2.25;;;;;;;;5022179;28;61826;-75
2022/12/20 04:30:41;;;;;;;;;2.75;1.75;;;;;;;;5034625;28;61706;-75
2022/12/20 04:33:06;;;;;;;;;2.00;2.00;;;;;;;;5043602;28;61858;-75
2022/12/20 04:35:31;;;;;;;;;1.75;1.00;;;;;;;;5042751;28;62900;-75
2022/12/20 04:37:57;;;;;;;;;2.50;1.50;;;;;;;;5043214;28;62095;-75
2022/12/20 04:40:22;;;;;;;;;3.00;2.00;;;;;;;;5043022;28;61764;-76
2022/12/20 04:42:47;;;;;;;;;3.00;1.00;;;;;;;;5043469;28;62119;-75
2022/12/20 04:45:13;;;;;;;;;2.00;1.00;;;;;;;;5042461;28;62802;-75
2022/12/20 04:47:38;;;;;;;;;3.25;2.00;;;;;;;;5043379;28;61869;-75
2022/12/20 04:50:04;;;;;;;;;1.00;1.00;;;;;;;;5042846;28;61856;-75
2022/12/20 04:55:14;;;;;;;;;1.00;1.00;;;;;;;;5042256;28;61798;-76
2022/12/20 04:57:39;;;;;;;;;2.00;1.75;;;;;;;;5041384;28;62084;-75
2022/12/20 05:00:05;;;;;;;;;1.50;1.50;;;;;;;;5042363;28;62129;-75
2022/12/20 05:02:30;;;;;;;;;1.00;1.00;;;;;;;;5043307;28;61702;-75
2022/12/20 05:04:55;;;;;;;;;3.00;1.00;;;;;;;;5042202;28;63094;-75
2022/12/20 05:07:20;;;;;;;;;3.75;2.00;;;;;;;;5041168;28;61821;-75
2022/12/20 05:09:46;;;;;;;;;1.00;1.00;;;;;;;;5042370;28;61764;-75
2022/12/20 05:12:11;;;;;;;;;3.75;1.25;;;;;;;;5042570;28;62008;-74
2022/12/20 05:14:36;;;;;;;;;2.00;1.00;;;;;;;;5040655;28;63450;-76
2022/12/20 05:17:01;;;;;;;;;3.00;1.00;;;;;;;;5042672;28;61775;-76
2022/12/20 05:19:27;;;;;;;;;2.25;1.75;;;;;;;;5042222;28;61873;-75
2022/12/20 05:27:24;;;;;;;;;2.50;1.25;;;;;;;;5042091;28;61841;-75
2022/12/20 05:29:49;;;;;;;;;2.75;1.00;;;;;;;;5042438;28;61957;-75
2022/12/20 05:32:14;;;;;;;;;1.00;1.00;;;;;;;;5040994;28;61821;-76
2022/12/20 05:34:40;;;;;;;;;1.75;0.25;;;;;;;;5042026;28;61820;-76
2022/12/20 05:37:05;;;;;;;;;3.00;1.00;;;;;;;;5042336;28;61718;-76
2022/12/20 05:39:31;;;;;;;;;1.75;1.75;;;;;;;;5040679;28;61775;-76
2022/12/20 05:41:56;;;;;;;;;0.25;0.25;;;;;;;;5042280;28;62074;-76
2022/12/20 05:44:21;;;;;;;;;1.00;1.00;;;;;;;;5040103;28;63749;-77
2022/12/20 05:46:47;;;;;;;;;0.75;0.75;;;;;;;;5042275;28;61936;-76
2022/12/20 05:49:12;;;;;;;;;1.50;1.50;;;;;;;;5042387;28;61813;-76
2022/12/20 05:51:37;;;;;;;;;0.50;0.50;;;;;;;;5042715;28;61809;-76
2022/12/20 05:54:02;;;;;;;;;1.00;1.00;;;;;;;;5041660;28;61750;-75
2022/12/20 05:56:28;;;;;;;;;1.00;1.00;;;;;;;;5036438;28;61981;-76
2022/12/20 05:58:53;;;;;;;;;2.50;1.50;;;;;;;;5037684;28;61854;-76
2022/12/20 06:01:19;;;;;;;;;1.00;1.00;;;;;;;;5040543;28;62046;-76
2022/12/20 06:03:44;;;;;;;;;1.00;0.00;;;;;;;;5026955;28;64867;-77
2022/12/20 06:06:10;;;;;;;;;0.75;0.75;;;;;;;;5020490;28;61924;-77
2022/12/20 06:08:35;;;;;;;;;1.00;1.00;;;;;;;;5028708;28;61798;-77
2022/12/20 06:11:03;;;;;;;;;0.50;0.00;;;;;;;;5043595;28;61773;-77
2022/12/20 06:13:28;;;;;;;;;2.00;1.00;;;;;;;;5044485;28;62570;-77
2022/12/20 06:15:54;;;;;;;;;3.00;2.00;;;;;;;;5044644;28;61947;-77
2022/12/20 06:18:20;;;;;;;;;2.00;1.00;;;;;;;;5043203;28;62215;-77
2022/12/20 06:20:49;;;;;;;;;1.00;1.00;;;;;;;;5042867;28;61957;-78
2022/12/20 06:23:14;;;;;;;;;0.50;0.25;;;;;;;;5042610;28;62890;-77
2022/12/20 06:25:39;;;;;;;;;1.00;1.00;;;;;;;;5043924;28;61734;-76
2022/12/20 06:28:06;;;;;;;;;2.00;1.00;;;;;;;;5044312;28;61869;-77
2022/12/20 06:30:31;;;;;;;;;4.00;1.75;;;;;;;;5043434;28;61789;-77
2022/12/20 06:32:57;;;;;;;;;0.75;0.75;;;;;;;;5041554;28;61989;-77
2022/12/20 06:35:22;;;;;;;;;1.00;1.00;;;;;;;;5042223;28;61924;-77
2022/12/20 06:37:47;;;;;;;;;1.00;1.00;;;;;;;;5043266;28;61738;-77
2022/12/20 06:40:13;;;;;;;;;1.75;1.75;;;;;;;;5044681;28;61777;-77
2022/12/20 06:42:39;;;;;;;;;1.75;1.00;;;;;;;;5042244;28;63750;-77
2022/12/20 06:45:04;;;;;;;;;1.00;1.00;;;;;;;;5044858;28;61861;-77
2022/12/20 06:47:30;;;;;;;;;2.25;1.00;;;;;;;;5044887;28;61660;-77
2022/12/20 06:49:55;;;;;;;;;2.25;1.25;;;;;;;;5044961;28;61811;-77
2022/12/20 06:52:20;;;;;;;;;2.00;0.00;;;;;;;;5044117;28;61706;-77
2022/12/20 06:54:45;;;;;;;;;1.25;1.25;;;;;;;;5044802;28;62102;-77
2022/12/20 06:57:11;;;;;;;;;3.25;1.00;;;;;;;;5044842;28;61885;-77
2022/12/20 06:59:36;;;;;;;;;1.50;1.50;;;;;;;;5044862;28;61757;-76
2022/12/20 07:02:01;;;;;;;;;1.25;1.00;;;;;;;;5044287;28;61760;-77
2022/12/20 07:04:26;;;;;;;;;2.00;2.00;;;;;;;;5044821;28;61808;-76
2022/12/20 07:06:52;;;;;;;;;1.00;1.00;;;;;;;;5043062;28;61785;-77
2022/12/20 07:09:17;;;;;;;;;2.50;1.75;;;;;;;;5044578;28;61939;-77
2022/12/20 07:11:42;;;;;;;;;2.50;1.00;;;;;;;;5043882;28;62682;-77
2022/12/20 07:14:08;;;;;;;;;1.00;1.00;;;;;;;;5044576;28;61738;-77
2022/12/20 07:16:34;;;;;;;;;2.75;1.00;;;;;;;;5044534;28;62004;-77
2022/12/20 07:19:00;;;;;;;;;1.00;1.00;;;;;;;;5042936;28;62222;-77
2022/12/20 07:21:25;;;;;;;;;2.00;1.00;;;;;;;;5041566;28;63751;-77
2022/12/20 07:23:52;;;;;;;;;1.00;1.00;;;;;;;;5042924;28;61975;-77
2022/12/20 07:26:17;;;;;;;;;3.00;1.75;;;;;;;;5044287;28;62016;-77
2022/12/20 07:28:43;;;;;;;;;2.00;2.00;;;;;;;;5043103;28;61982;-77
2022/12/20 07:31:09;;;;;;;;;1.75;1.00;;;;;;;;5044021;28;61874;-77
2022/12/20 07:33:34;;;;;;;;;1.00;1.00;;;;;;;;5044246;28;61872;-77
2022/12/20 07:36:00;;;;;;;;;4.00;1.50;;;;;;;;5044036;28;61957;-76
2022/12/20 07:38:26;;;;;;;;;2.25;1.00;;;;;;;;5044807;28;61674;-77
2022/12/20 07:40:51;;;;;;;;;1.50;0.00;;;;;;;;5043272;28;61860;-77
2022/12/20 07:43:16;;;;;;;;;2.00;2.00;;;;;;;;5044412;28;61998;-77
2022/12/20 07:45:42;;;;;;;;;2.00;1.00;;;;;;;;5044120;28;61636;-77
2022/12/20 07:48:07;;;;;;;;;0.00;0.00;;;;;;;;5042998;28;61953;-77
2022/12/20 07:50:33;;;;;;;;;2.00;1.00;;;;;;;;5043209;28;62925;-77
2022/12/20 07:52:59;;;;;;;;;1.00;1.00;;;;;;;;5043920;28;61628;-78
2022/12/20 07:55:24;;;;;;;;;2.50;1.00;;;;;;;;5042594;28;61745;-77
2022/12/20 07:57:56;;;;;;;;;1.50;1.50;;;;;;;;5042662;28;61869;-77
2022/12/20 08:00:21;;;;;;;;;4.00;2.00;;;;;;;;5043533;28;62492;-77
2022/12/20 08:02:56;;;;;;;;;1.50;0.50;;;;;;;;5042310;28;62024;-77
2022/12/20 08:05:22;;;;;;;;;0.00;0.00;;;;;;;;5043875;28;61845;-76
2022/12/20 08:07:47;;;;;;;;;0.00;0.00;;;;;;;;5043861;28;61690;-77
2022/12/20 08:10:13;;;;;;;;;0.00;0.00;;;;;;;;5043169;28;62701;-77
2022/12/20 08:12:39;;;;;;;;;0.50;0.50;;;;;;;;5043831;28;62097;-77
2022/12/20 08:15:05;;;;;;;;;2.00;1.00;;;;;;;;5042268;28;61874;-77
2022/12/20 08:17:30;;;;;;;;;1.00;0.00;;;;;;;;5043726;28;61830;-77
2022/12/20 08:19:56;;;;;;;;;1.50;1.00;;;;;;;;5042640;28;62806;-77
2022/12/20 08:22:22;;;;;;;;;1.75;1.00;;;;;;;;5042348;28;61972;-77
2022/12/20 08:24:47;;;;;;;;;1.00;1.00;;;;;;;;5042012;28;61928;-77
2022/12/20 08:27:14;;;;;;;;;1.00;1.00;;;;;;;;5042329;28;61802;-77
2022/12/20 08:29:39;;;;;;;;;2.00;0.50;;;;;;;;5042869;28;61756;-77
2022/12/20 08:32:04;;;;;;;;;1.00;1.00;;;;;;;;5043194;28;61945;-77
2022/12/20 08:34:30;;;;;;;;;3.50;2.00;;;;;;;;5042369;28;61654;-77
2022/12/20 08:36:55;;;;;;;;;1.25;0.25;;;;;;;;5043217;28;61701;-77
2022/12/20 08:39:21;;;;;;;;;1.75;1.25;;;;;;;;5042930;28;61624;-77
2022/12/20 08:41:46;;;;;;;;;1.00;1.00;;;;;;;;5043323;28;61682;-77
2022/12/20 08:44:12;;;;;;;;;3.50;1.75;;;;;;;;5043370;28;61689;-77
2022/12/20 08:46:37;;;;;;;;;1.00;1.00;;;;;;;;5043678;28;61793;-77
2022/12/20 08:49:03;;;;;;;;;1.00;1.00;;;;;;;;5042087;28;61817;-77
2022/12/20 08:51:28;;;;;;;;;2.00;2.00;;;;;;;;5041977;28;62075;-77
2022/12/20 08:53:53;;;;;;;;;1.00;1.00;;;;;;;;5043519;28;62091;-77
2022/12/20 08:56:19;;;;;;;;;2.00;1.00;;;;;;;;5043169;28;62018;-77
2022/12/20 08:58:44;;;;;;;;;2.00;2.00;;;;;;;;5042323;28;61940;-77
2022/12/20 09:01:11;;;;;;;;;2.75;2.00;;;;;;;;5042956;28;61793;-77
2022/12/20 09:03:37;;;;;;;;;3.00;1.75;;;;;;;;5041498;28;62001;-77
2022/12/20 09:06:06;;;;;;;;;2.00;1.00;;;;;;;;5043011;28;61852;-77
2022/12/20 09:08:33;;;;;;;;;1.50;1.25;;;;;;;;5042260;28;61615;-77
2022/12/20 09:11:06;;;;;;;;;1.25;1.25;;;;;;;;5041071;28;61810;-77
2022/12/20 09:13:31;;;;;;;;;1.75;1.00;;;;;;;;5042777;28;61888;-77
2022/12/20 09:15:58;;;;;;;;;1.00;1.00;;;;;;;;5042725;28;62129;-77
2022/12/20 09:18:24;;;;;;;;;1.00;1.00;;;;;;;;5042256;28;61992;-77
2022/12/20 09:20:49;;;;;;;;;1.50;1.50;;;;;;;;5042326;28;61821;-77
2022/12/20 09:23:14;;;;;;;;;2.00;1.00;;;;;;;;5042468;28;61956;-77
2022/12/20 09:25:39;;;;;;;;;1.00;1.00;;;;;;;;5041412;28;61887;-77
2022/12/20 09:28:05;;;;;;;;;2.00;2.00;;;;;;;;5041829;28;62038;-77
2022/12/20 09:30:31;;;;;;;;;1.75;1.00;;;;;;;;5042339;28;61770;-77
2022/12/20 09:32:56;;;;;;;;;1.00;1.00;;;;;;;;5042499;28;61935;-77
2022/12/20 09:35:21;;;;;;;;;1.50;1.00;;;;;;;;5042758;28;61910;-76
2022/12/20 09:37:47;;;;;;;;;2.25;2.25;;;;;;;;5042053;28;62015;-77
2022/12/20 09:40:17;;;;;;;;;1.50;1.25;;;;;;;;5040825;28;62130;-77
2022/12/20 09:42:43;;;;;;;;;0.00;0.00;;;;;;;;5042552;28;61884;-76
2022/12/20 09:45:08;;;;;;;;;2.00;1.00;;;;;;;;5041896;28;62006;-76
2022/12/20 09:47:35;;;;;;;;;2.00;2.00;;;;;;;;5041830;28;62745;-76
2022/12/20 09:50:01;;;;;;;;;1.00;1.00;;;;;;;;5041870;28;61905;-76
2022/12/20 09:52:45;;;;;;;;;1.50;1.50;;;;;;;;5040822;28;61821;-77
2022/12/20 09:55:29;;;;;;;;;3.00;1.25;;;;;;;;5042436;28;61879;-76
2022/12/20 09:57:57;;;;;;;;;2.25;2.00;;;;;;;;5041723;28;61801;-77
2022/12/20 10:00:22;;;;;;;;;2.00;1.00;;;;;;;;5041660;28;61729;-76
2022/12/20 10:02:48;;;;;;;;;1.00;1.00;;;;;;;;5040673;28;61832;-77
2022/12/20 10:05:16;;;;;;;;;1.75;1.00;;;;;;;;5042185;28;61742;-76
2022/12/20 10:08:04;;;;;;;;;0.50;0.50;;;;;;;;5041861;28;62421;-76
2022/12/20 10:10:47;;;;;;;;;1.00;1.00;;;;;;;;5038264;28;65051;-76
2022/12/20 10:13:24;;;;;;;;;2.00;2.00;;;;;;;;5041844;28;61809;-76
2022/12/20 10:16:08;;;;;;;;;2.00;2.00;;;;;;;;5042374;28;61750;-76
2022/12/20 10:18:42;;;;;;;;;2.00;2.00;;;;;;;;5041563;28;63782;-76
2022/12/20 10:21:09;;;;;;;;;1.50;1.50;;;;;;;;5041762;28;61860;-76
2022/12/20 10:23:41;;;;;;;;;7.00;2.25;;;;;;;;5040158;28;61798;-76
2022/12/20 10:26:10;;;;;;;;;4.75;3.00;;;;;;;;5041841;28;62472;-76
2022/12/20 10:28:36;;;;;;;;;3.25;1.50;;;;;;;;5041087;28;62873;-76
2022/12/20 10:31:04;;;;;;;;;2.75;2.00;;;;;;;;5040405;28;61803;-76
2022/12/20 10:33:30;;;;;;;;;0.25;0.25;;;;;;;;5041606;28;61749;-76
2022/12/20 10:36:15;;;;;;;;;2.25;2.00;;;;;;;;5042151;28;61777;-76
2022/12/20 10:38:48;;;;;;;;;3.00;3.00;;;;;;;;5040966;28;61747;-76
2022/12/20 10:41:15;;;;;;;;;2.25;2.00;;;;;;;;5039991;28;61817;-76
2022/12/20 10:43:42;;;;;;;;;2.50;2.50;;;;;;;;5041493;28;61904;-76
2022/12/20 10:46:07;;;;;;;;;3.00;2.00;;;;;;;;5041852;28;61784;-76
2022/12/20 10:48:34;;;;;;;;;2.75;2.75;;;;;;;;5040919;28;61717;-77
2022/12/20 10:51:11;;;;;;;;;2.00;2.00;;;;;;;;5039960;28;61956;-76
2022/12/20 10:53:49;;;;;;;;;5.75;2.75;;;;;;;;5039983;28;61939;-76
2022/12/20 10:56:35;;;;;;;;;2.00;2.00;;;;;;;;5041991;28;61807;-76
2022/12/20 10:59:00;;;;;;;;;3.00;2.00;;;;;;;;5044196;28;62634;-76
2022/12/20 11:01:28;;;;;;;;;2.00;2.00;;;;;;;;5043095;28;61805;-76
2022/12/20 11:04:01;;;;;;;;;1.25;1.00;;;;;;;;5043607;28;61826;-76
2022/12/20 11:06:40;;;;;;;;;2.00;2.00;;;;;;;;5045003;28;61721;-77
2022/12/20 11:09:23;;;;;;;;;2.25;1.50;;;;;;;;5043978;28;61785;-76
2022/12/20 11:11:59;;;;;;;;;1.00;1.00;;;;;;;;5043425;28;61959;-76
2022/12/20 11:14:24;;;;;;;;;4.75;2.25;;;;;;;;5044685;28;61931;-76
2022/12/20 11:16:50;;;;;;;;;4.00;2.00;;;;;;;;5044898;28;61930;-76
2022/12/20 11:19:19;;;;;;;;;2.00;2.00;;;;;;;;5043830;28;61937;-77
2022/12/20 11:21:56;;;;;;;;;2.25;2.00;;;;;;;;5044502;28;61811;-76
2022/12/20 11:24:36;;;;;;;;;2.75;2.75;;;;;;;;5044451;28;61704;-76
2022/12/20 11:27:20;;;;;;;;;2.00;2.00;;;;;;;;5044356;28;61912;-76
2022/12/20 11:29:45;;;;;;;;;3.00;3.00;;;;;;;;5043948;28;62884;-77
2022/12/20 11:32:20;;;;;;;;;2.00;1.00;;;;;;;;5042917;28;61981;-76
2022/12/20 11:34:57;;;;;;;;;2.50;2.00;;;;;;;;5044409;28;61988;-76
2022/12/20 11:37:23;;;;;;;;;2.00;1.25;;;;;;;;5043065;28;62171;-76
2022/12/20 11:40:07;;;;;;;;;5.00;3.75;;;;;;;;5042367;28;64957;-76
2022/12/20 11:42:44;;;;;;;;;7.75;6.25;;;;;;;;5043695;28;61761;-76
2022/12/20 11:45:22;;;;;;;;;3.50;3.50;;;;;;;;5044547;28;61762;-77
2022/12/20 11:47:56;;;;;;;;;6.00;4.25;;;;;;;;5044338;28;61670;-76
2022/12/20 11:50:27;;;;;;;;;7.75;4.00;;;;;;;;5043164;28;62846;-76
2022/12/20 11:52:59;;;;;;;;;6.00;4.00;;;;;;;;5044054;28;61981;-77
2022/12/20 11:55:26;;;;;;;;;5.75;2.00;;;;;;;;5043850;28;61806;-77
2022/12/20 11:57:52;;;;;;;;;8.50;5.25;;;;;;;;5042539;28;61782;-77
2022/12/20 12:00:17;;;;;;;;;3.25;3.25;;;;;;;;5043488;28;62549;-76
2022/12/20 12:02:47;;;;;;;;;6.75;4.25;;;;;;;;5043656;28;61801;-77
2022/12/20 12:05:15;;;;;;;;;4.00;4.00;;;;;;;;5042724;28;61905;-77
2022/12/20 12:07:43;;;;;;;;;13.00;10.00;;;;;;;;5043750;28;62548;-77
2022/12/20 12:10:15;;;;;;;;;4.00;4.00;;;;;;;;5042653;28;62007;-77
2022/12/20 12:12:45;;;;;;;;;6.75;6.75;;;;;;;;5043367;28;61906;-77
2022/12/20 12:15:10;;;;;;;;;6.50;6.50;;;;;;;;5042559;28;61839;-77
2022/12/20 12:17:44;;;;;;;;;8.25;4.75;;;;;;;;5042447;28;61745;-77
2022/12/20 12:20:21;;;;;;;;;8.75;3.50;;;;;;;;5042801;28;61948;-77
2022/12/20 12:22:48;;;;;;;;;3.75;3.75;;;;;;;;5042944;28;61849;-77
2022/12/20 12:25:16;;;;;;;;;5.25;4.75;;;;;;;;5043643;28;61809;-77
2022/12/20 12:27:41;;;;;;;;;4.00;4.00;;;;;;;;5043340;28;62077;-77
2022/12/20 12:30:11;;;;;;;;;6.00;3.00;;;;;;;;5041464;28;64832;-77
2022/12/20 12:32:56;;;;;;;;;2.00;2.00;;;;;;;;5042158;28;61698;-77
2022/12/20 12:35:33;;;;;;;;;6.75;3.75;;;;;;;;5043188;28;61952;-77
2022/12/20 12:38:17;;;;;;;;;6.50;4.00;;;;;;;;5042122;28;61745;-77
2022/12/20 12:40:51;;;;;;;;;3.00;3.00;;;;;;;;5042266;28;61912;-77
2022/12/20 12:43:16;;;;;;;;;6.75;4.00;;;;;;;;5043354;28;61758;-77
2022/12/20 12:45:55;;;;;;;;;3.75;2.75;;;;;;;;5043029;28;61999;-77
2022/12/20 12:48:39;;;;;;;;;5.75;4.00;;;;;;;;5043547;28;62056;-76
2022/12/20 12:51:05;;;;;;;;;3.50;3.50;;;;;;;;5042686;28;61999;-77
2022/12/20 12:53:50;;;;;;;;;6.00;2.25;;;;;;;;5042788;28;62003;-77
2022/12/20 12:56:24;;;;;;;;;6.50;6.50;;;;;;;;5043191;28;61829;-76
2022/12/20 12:59:05;;;;;;;;;6.25;5.00;;;;;;;;5041555;28;62110;-77
2022/12/20 13:01:49;;;;;;;;;6.00;6.00;;;;;;;;5040969;28;63688;-77
2022/12/20 13:04:21;;;;;;;;;6.50;2.00;;;;;;;;5043054;28;61689;-77
2022/12/20 13:06:46;;;;;;;;;3.00;2.00;;;;;;;;5041194;28;61849;-76
2022/12/20 13:09:35;;;;;;;;;4.00;3.00;;;;;;;;5042561;28;61721;-77
2022/12/20 13:12:20;;;;;;;;;1.50;1.50;;;;;;;;5040764;28;64466;-76
2022/12/20 13:14:46;;;;;;;;;3.00;2.00;;;;;;;;5042341;28;61682;-77
2022/12/20 13:17:11;;;;;;;;;4.25;2.25;;;;;;;;5042888;28;61734;-77
2022/12/20 13:19:37;;;;;;;;;2.00;2.00;;;;;;;;5040796;28;61782;-76
2022/12/20 13:22:06;;;;;;;;;4.00;2.00;;;;;;;;5040231;28;63745;-76
2022/12/20 13:24:43;;;;;;;;;3.25;2.25;;;;;;;;5042612;28;62063;-77
2022/12/20 13:27:35;;;;;;;;;2.25;2.00;;;;;;;;5042602;28;61894;-77
2022/12/20 13:30:08;;;;;;;;;2.25;2.00;;;;;;;;5040487;28;62096;-77
2022/12/20 13:32:46;;;;;;;;;2.75;2.75;;;;;;;;5040769;28;64529;-77
2022/12/20 13:35:24;;;;;;;;;2.75;2.00;;;;;;;;5042672;28;62012;-77
2022/12/20 13:37:57;;;;;;;;;2.00;2.00;;;;;;;;5040889;28;62020;-77
2022/12/20 13:40:43;;;;;;;;;1.00;1.00;;;;;;;;5042888;28;61813;-76
2022/12/20 13:43:14;;;;;;;;;4.00;2.75;;;;;;;;5041834;28;61766;-77
2022/12/20 13:45:42;;;;;;;;;3.00;3.00;;;;;;;;5040848;28;61790;-76
2022/12/20 13:48:11;;;;;;;;;2.25;2.25;;;;;;;;5042308;28;62370;-77
2022/12/20 13:50:46;;;;;;;;;7.00;2.00;;;;;;;;5042264;28;61659;-77
2022/12/20 13:53:21;;;;;;;;;3.00;2.25;;;;;;;;5041483;28;61836;-77
2022/12/20 13:55:48;;;;;;;;;4.00;4.00;;;;;;;;5042059;28;61834;-77
2022/12/20 13:58:27;;;;;;;;;2.00;2.00;;;;;;;;5041949;28;61845;-77
2022/12/20 14:00:53;;;;;;;;;5.50;2.25;;;;;;;;5041987;28;61694;-77
2022/12/20 14:03:20;;;;;;;;;6.75;3.75;;;;;;;;5040095;28;64433;-77
2022/12/20 14:05:46;;;;;;;;;2.00;2.00;;;;;;;;5042106;28;61786;-77
2022/12/20 14:08:19;;;;;;;;;4.50;3.00;;;;;;;;5040268;28;62373;-77
2022/12/20 14:10:45;;;;;;;;;3.75;3.00;;;;;;;;5057731;28;62119;-77
2022/12/20 14:13:23;;;;;;;;;6.00;2.50;;;;;;;;5041066;28;62127;-76
2022/12/20 14:15:49;;;;;;;;;5.50;3.75;;;;;;;;5041929;28;61865;-77
2022/12/20 14:18:16;;;;;;;;;4.75;4.75;;;;;;;;5040664;28;61817;-77
2022/12/20 14:20:41;;;;;;;;;1.75;1.75;;;;;;;;5040401;28;61849;-77
2022/12/20 14:23:14;;;;;;;;;2.00;2.00;;;;;;;;5041030;28;62066;-77
2022/12/20 14:25:59;;;;;;;;;2.25;2.25;;;;;;;;5042093;28;61928;-77
2022/12/20 14:28:28;;;;;;;;;4.50;3.25;;;;;;;;5040561;28;61963;-76
2022/12/20 14:30:55;;;;;;;;;3.25;3.25;;;;;;;;5040393;28;62203;-76
2022/12/20 14:33:24;;;;;;;;;3.50;3.00;;;;;;;;5043320;28;64647;-76
2022/12/20 14:35:50;;;;;;;;;4.75;3.00;;;;;;;;5045145;28;61833;-77
2022/12/20 14:38:20;;;;;;;;;3.00;3.00;;;;;;;;5045177;28;62172;-77
2022/12/20 14:40:46;;;;;;;;;3.25;3.25;;;;;;;;5045602;28;61816;-77
2022/12/20 14:43:15;;;;;;;;;1.00;1.00;;;;;;;;5044336;28;61738;-76
2022/12/20 14:45:40;;;;;;;;;3.25;3.25;;;;;;;;5045117;28;61869;-76
2022/12/20 14:48:14;;;;;;;;;4.00;2.50;;;;;;;;5045034;28;61749;-76
2022/12/20 14:50:42;;;;;;;;;3.00;2.00;;;;;;;;5043403;28;61838;-77
2022/12/20 14:53:16;;;;;;;;;3.25;2.00;;;;;;;;5044380;28;62312;-77
2022/12/20 14:55:44;;;;;;;;;4.75;3.00;;;;;;;;5043733;28;61796;-77
2022/12/20 14:58:29;;;;;;;;;2.00;2.00;;;;;;;;5044659;28;61798;-77
2022/12/20 15:00:59;;;;;;;;;3.25;2.75;;;;;;;;5045316;28;61929;-77